createdAt,value
2022-08-03T00:00:41.913Z,14.96
2022-08-03T00:03:10.608Z,14.64
2022-08-03T00:05:39.255Z,14.57
2022-08-03T00:08:08.141Z,14.48
2022-08-03T00:10:37.333Z,14.29
2022-08-03T00:13:05.896Z,14.26
2022-08-03T00:15:34.549Z,14.06
2022-08-03T00:18:05.631Z,14.03
2022-08-03T00:20:34.144Z,14.04
2022-08-03T00:23:02.844Z,13.93
2022-08-03T00:25:31.845Z,13.97
2022-08-03T00:28:00.415Z,14.08
2022-08-03T00:30:30.767Z,14.05
2022-08-03T00:33:00.070Z,14.05
2022-08-03T00:35:50.028Z,14.09
2022-08-03T00:38:19.011Z,14.05
2022-08-03T00:40:48.054Z,13.90
2022-08-03T00:43:16.729Z,14.10
2022-08-03T00:45:45.425Z,13.95
2022-08-03T00:48:19.536Z,14.08
2022-08-03T00:51:01.800Z,14.04
2022-08-03T00:53:31.011Z,13.99
2022-08-03T00:56:00.194Z,14.16
2022-08-03T00:58:28.762Z,14.09
2022-08-03T01:00:57.258Z,13.96
2022-08-03T01:03:25.621Z,14.07
2022-08-03T01:06:07.141Z,14.13
2022-08-03T01:08:48.614Z,14.13
2022-08-03T01:12:00.501Z,14.30
2022-08-03T01:14:39.302Z,15.40
2022-08-03T01:17:44.725Z,16.79
2022-08-03T01:20:17.787Z,17.17
2022-08-03T01:23:16.324Z,17.87
2022-08-03T01:25:47.322Z,18.46
2022-08-03T01:28:59.835Z,18.98
2022-08-03T01:32:51.737Z,19.03
2022-08-03T01:34:35.833Z,18.50
2022-08-03T01:37:08.337Z,18.22
2022-08-03T01:39:39.474Z,18.00
2022-08-03T01:42:09.742Z,17.65
2022-08-03T01:44:42.663Z,17.64
2022-08-03T01:47:13.528Z,17.68
2022-08-03T01:49:46.183Z,17.84
2022-08-03T01:52:18.339Z,18.02
2022-08-03T01:54:50.971Z,18.19
2022-08-03T01:57:20.864Z,18.11
2022-08-03T01:59:51.856Z,18.25
2022-08-03T02:02:32.813Z,18.33
2022-08-03T02:05:05.387Z,18.34
2022-08-03T02:07:41.723Z,18.38
2022-08-03T02:10:12.945Z,18.21
2022-08-03T02:12:45.906Z,18.18
2022-08-03T02:15:17.010Z,18.68
2022-08-03T02:17:48.061Z,18.84
2022-08-03T02:20:17.800Z,19.23
2022-08-03T02:22:47.766Z,19.26
2022-08-03T02:25:17.232Z,19.29
2022-08-03T02:28:07.517Z,19.26
2022-08-03T02:30:39.992Z,19.11
2022-08-03T02:33:17.839Z,18.87
2022-08-03T02:35:48.094Z,18.70
2022-08-03T02:38:20.216Z,18.87
2022-08-03T02:40:52.202Z,18.80
2022-08-03T02:43:24.825Z,18.68
2022-08-03T02:45:55.253Z,19.08
2022-08-03T02:48:31.712Z,19.16
2022-08-03T02:51:03.478Z,19.19
2022-08-03T02:53:33.096Z,19.49
2022-08-03T02:56:04.736Z,19.63
2022-08-03T02:58:34.969Z,19.78
2022-08-03T03:01:04.383Z,20.14
2022-08-03T03:03:39.282Z,20.18
2022-08-03T03:06:14.233Z,20.27
2022-08-03T03:08:44.617Z,20.30
2022-08-03T03:11:16.785Z,20.45
2022-08-03T03:13:47.411Z,20.45
2022-08-03T03:16:16.953Z,20.43
2022-08-03T03:18:47.471Z,20.66
2022-08-03T03:21:19.378Z,20.75
2022-08-03T03:23:49.588Z,20.89
2022-08-03T03:26:18.652Z,21.17
2022-08-03T03:28:47.897Z,21.15
2022-08-03T03:31:16.795Z,21.10
2022-08-03T03:33:45.813Z,21.03
2022-08-03T03:36:14.455Z,20.76
2022-08-03T03:38:43.296Z,20.79
2022-08-03T03:41:12.241Z,20.98
2022-08-03T03:43:40.851Z,21.07
2022-08-03T03:46:09.513Z,21.14
2022-08-03T03:48:38.158Z,20.97
2022-08-03T03:51:10.889Z,20.99
2022-08-03T03:53:39.513Z,21.02
2022-08-03T03:56:08.290Z,21.01
2022-08-03T03:58:36.810Z,20.85
2022-08-03T04:01:05.523Z,20.78
2022-08-03T04:03:34.193Z,20.78
2022-08-03T04:06:21.104Z,20.93
2022-08-03T04:09:08.481Z,20.90
2022-08-03T04:11:48.682Z,21.07
2022-08-03T04:14:36.886Z,21.21
2022-08-03T04:17:12.223Z,21.29
2022-08-03T04:19:48.358Z,21.40
2022-08-03T04:22:21.077Z,21.23
2022-08-03T04:24:58.341Z,20.98
2022-08-03T04:27:29.800Z,21.32
2022-08-03T04:30:00.466Z,21.50
2022-08-03T04:32:30.649Z,21.48
2022-08-03T04:34:59.660Z,21.53
2022-08-03T04:37:39.282Z,21.35
2022-08-03T04:40:12.220Z,21.63
2022-08-03T04:42:43.083Z,21.66
2022-08-03T04:45:16.913Z,21.73
2022-08-03T04:47:46.005Z,21.55
2022-08-03T04:50:19.435Z,21.56
2022-08-03T04:53:07.149Z,21.58
2022-08-03T04:55:38.358Z,21.45
2022-08-03T04:58:07.028Z,21.54
2022-08-03T05:00:35.708Z,21.80
2022-08-03T05:03:04.246Z,21.81
2022-08-03T05:05:50.555Z,21.88
2022-08-03T05:08:20.649Z,21.74
2022-08-03T05:10:59.172Z,21.89
2022-08-03T05:13:28.436Z,21.85
2022-08-03T05:15:57.152Z,21.91
2022-08-03T05:18:26.011Z,22.00
2022-08-03T05:20:54.582Z,21.99
2022-08-03T05:23:23.352Z,22.14
2022-08-03T05:25:51.998Z,21.97
2022-08-03T05:28:20.770Z,22.03
2022-08-03T05:30:49.346Z,22.17
2022-08-03T05:33:18.026Z,22.14
2022-08-03T05:35:57.218Z,22.07
2022-08-03T05:38:35.024Z,21.91
2022-08-03T05:41:20.990Z,22.06
2022-08-03T05:43:56.221Z,22.08
2022-08-03T05:46:24.753Z,22.12
2022-08-03T05:48:53.540Z,22.11
2022-08-03T05:51:22.215Z,22.25
2022-08-03T05:53:50.914Z,22.48
2022-08-03T05:56:24.942Z,22.38
2022-08-03T05:58:54.136Z,22.23
2022-08-03T06:01:23.399Z,22.24
2022-08-03T06:03:52.986Z,22.32
2022-08-03T06:06:21.616Z,22.38
2022-08-03T06:08:50.651Z,22.46
2022-08-03T06:11:19.595Z,22.59
2022-08-03T06:13:48.201Z,22.72
2022-08-03T06:16:16.841Z,22.85
2022-08-03T06:18:45.272Z,22.79
2022-08-03T06:21:14.240Z,22.93
2022-08-03T06:23:54.953Z,23.18
2022-08-03T06:26:28.407Z,23.05
2022-08-03T06:28:57.199Z,23.05
2022-08-03T06:31:32.640Z,22.97
2022-08-03T06:34:35.003Z,23.13
2022-08-03T06:37:01.416Z,23.06
2022-08-03T06:39:31.318Z,22.95
2022-08-03T06:41:59.915Z,23.20
2022-08-03T06:44:28.605Z,23.36
2022-08-03T06:46:57.463Z,23.53
2022-08-03T06:49:26.139Z,23.46
2022-08-03T06:52:05.602Z,23.51
2022-08-03T06:54:35.745Z,23.63
2022-08-03T06:57:05.084Z,23.52
2022-08-03T07:00:09.498Z,23.60
2022-08-03T07:02:22.594Z,23.62
2022-08-03T07:04:51.446Z,23.54
2022-08-03T07:07:21.200Z,23.43
2022-08-03T07:48:30.462Z,24.36
2022-08-03T07:50:59.114Z,24.41
2022-08-03T07:53:28.059Z,24.42
2022-08-03T07:56:17.481Z,24.41
2022-08-03T07:58:48.921Z,24.36
2022-08-03T08:01:17.968Z,24.38
2022-08-03T08:03:52.621Z,24.37
2022-08-03T08:06:23.394Z,24.20
2022-08-03T08:08:52.073Z,24.28
2022-08-03T08:11:22.976Z,24.16
2022-08-03T08:13:51.695Z,24.01
2022-08-03T08:16:20.577Z,24.00
2022-08-03T08:18:49.346Z,24.03
2022-08-03T08:21:18.034Z,24.26
2022-08-03T08:23:56.863Z,24.04
2022-08-03T08:26:29.044Z,24.10
2022-08-03T08:28:57.765Z,24.31
2022-08-03T08:31:26.598Z,24.35
2022-08-03T08:34:04.105Z,24.33
2022-08-03T08:36:34.817Z,24.31
2022-08-03T08:39:03.630Z,24.33
2022-08-03T08:41:35.393Z,24.29
2022-08-03T08:44:04.299Z,24.58
2022-08-03T08:46:34.169Z,24.61
2022-08-03T08:49:03.802Z,24.73
2022-08-03T08:51:54.795Z,24.55
2022-08-03T08:54:27.843Z,24.43
2022-08-03T08:57:00.028Z,24.49
2022-08-03T08:59:48.839Z,24.39
2022-08-03T09:02:18.090Z,24.43
2022-08-03T09:04:49.507Z,24.27
2022-08-03T09:07:20.419Z,24.27
2022-08-03T09:10:05.957Z,24.39
2022-08-03T09:12:47.521Z,24.43
2022-08-03T09:15:26.734Z,24.57
2022-08-03T09:17:57.783Z,24.48
2022-08-03T09:20:31.579Z,24.44
2022-08-03T09:23:01.396Z,24.56
2022-08-03T09:25:37.564Z,24.54
2022-08-03T09:28:52.862Z,24.38
2022-08-03T09:31:10.409Z,24.36
2022-08-03T09:33:50.294Z,24.38
2022-08-03T09:36:39.117Z,24.51
2022-08-03T09:39:16.068Z,24.65
2022-08-03T09:41:56.150Z,24.81
2022-08-03T09:44:36.640Z,24.73
2022-08-03T09:47:07.039Z,24.69
2022-08-03T09:49:36.026Z,24.78
2022-08-03T09:52:38.428Z,24.93
2022-08-03T09:56:32.576Z,24.95
2022-08-03T09:58:09.930Z,24.81
2022-08-03T10:01:01.282Z,24.58
2022-08-03T10:03:32.107Z,24.58
2022-08-03T10:06:15.166Z,24.63
2022-08-03T10:08:43.873Z,24.61
2022-08-03T10:11:12.661Z,24.50
2022-08-03T10:13:41.221Z,24.70
2022-08-03T10:16:23.901Z,24.80
2022-08-03T10:18:54.018Z,24.88
2022-08-03T10:21:23.081Z,24.83
2022-08-03T10:23:54.518Z,24.85
2022-08-03T10:26:27.176Z,24.78
2022-08-03T10:29:01.920Z,24.85
2022-08-03T10:31:54.467Z,24.73
2022-08-03T10:34:35.961Z,24.60
2022-08-03T10:37:10.610Z,24.49
2022-08-03T10:39:53.976Z,24.39
2022-08-03T10:42:26.419Z,24.26
2022-08-03T10:45:04.976Z,24.33
2022-08-03T10:47:35.145Z,24.35
2022-08-03T10:50:04.979Z,24.31
2022-08-03T10:52:39.657Z,24.26
2022-08-03T10:55:53.386Z,24.34
2022-08-03T10:58:53.396Z,24.35
2022-08-03T11:02:00.890Z,24.28
2022-08-03T11:04:30.868Z,24.13
2022-08-03T11:07:22.440Z,24.19
2022-08-03T11:09:55.512Z,24.20
2022-08-03T11:12:32.620Z,24.25
2022-08-03T11:15:04.888Z,24.22
2022-08-03T11:17:46.788Z,24.02
2022-08-03T11:21:04.318Z,24.02
2022-08-03T11:24:04.714Z,23.85
2022-08-03T11:26:35.527Z,23.95
2022-08-03T11:29:30.085Z,23.97
2022-08-03T11:31:58.894Z,23.88
2022-08-03T11:34:27.701Z,23.83
2022-08-03T11:37:28.736Z,23.84
2022-08-03T11:40:00.298Z,23.89
2022-08-03T11:42:39.618Z,23.87
2022-08-03T11:45:09.766Z,23.88
2022-08-03T11:47:50.764Z,23.85
2022-08-03T11:50:22.041Z,23.84
2022-08-03T11:52:51.100Z,23.74
2022-08-03T11:55:22.555Z,23.69
2022-08-03T11:59:10.816Z,23.82
2022-08-03T12:00:40.531Z,23.90
2022-08-03T12:03:12.525Z,23.79
2022-08-03T12:05:51.030Z,23.74
2022-08-03T12:08:33.405Z,23.56
2022-08-03T12:11:06.364Z,23.57
2022-08-03T12:14:28.864Z,23.67
2022-08-03T12:16:40.836Z,23.62
2022-08-03T12:19:09.240Z,23.57
2022-08-03T12:21:56.989Z,23.57
2022-08-03T12:24:29.184Z,23.44
2022-08-03T12:27:00.036Z,23.56
2022-08-03T12:29:29.321Z,23.48
2022-08-03T12:31:58.047Z,23.45
2022-08-03T12:34:47.734Z,23.51
2022-08-03T12:37:22.462Z,23.41
2022-08-03T12:40:01.606Z,23.50
2022-08-03T12:42:38.991Z,23.53
2022-08-03T12:45:26.991Z,23.41
2022-08-03T12:48:00.667Z,23.32
2022-08-03T12:50:32.199Z,23.35
2022-08-03T12:53:08.877Z,23.37
2022-08-03T12:55:57.386Z,23.32
2022-08-03T12:58:48.686Z,23.21
2022-08-03T13:01:17.942Z,23.23
2022-08-03T13:03:52.916Z,23.22
2022-08-03T13:06:26.191Z,23.23
2022-08-03T13:09:08.185Z,23.16
2022-08-03T13:11:57.375Z,23.07
2022-08-03T13:14:25.680Z,23.08
2022-08-03T13:16:55.233Z,23.03
2022-08-03T13:19:24.226Z,22.98
2022-08-03T13:22:04.339Z,22.99
2022-08-03T13:24:34.361Z,22.92
2022-08-03T13:28:01.958Z,22.79
2022-08-03T13:29:53.695Z,22.78
2022-08-03T13:32:23.121Z,22.60
2022-08-03T13:34:51.622Z,22.60
2022-08-03T13:37:21.020Z,22.56
2022-08-03T13:39:59.423Z,22.49
2022-08-03T13:42:30.820Z,22.56
2022-08-03T13:45:01.018Z,22.52
2022-08-03T13:47:30.090Z,22.40
2022-08-03T13:50:00.785Z,22.39
2022-08-03T13:52:45.433Z,22.34
2022-08-03T13:58:03.905Z,22.26
2022-08-03T14:00:31.033Z,22.21
2022-08-03T14:03:07.976Z,22.19
2022-08-03T14:05:43.781Z,21.99
2022-08-03T14:08:12.844Z,22.01
2022-08-03T14:10:45.734Z,21.99
2022-08-03T14:13:17.785Z,21.93
2022-08-03T14:17:50.125Z,21.80
2022-08-03T14:20:33.876Z,21.34
2022-08-03T14:23:08.175Z,21.64
2022-08-03T14:25:43.187Z,21.52
2022-08-03T14:28:19.995Z,21.52
2022-08-03T14:30:49.163Z,21.36
2022-08-03T14:33:18.001Z,21.39
2022-08-03T14:35:46.868Z,21.11
2022-08-03T14:38:16.555Z,21.27
2022-08-03T14:40:45.537Z,21.13
2022-08-03T14:43:14.558Z,21.08
2022-08-03T14:45:43.435Z,21.07
2022-08-03T14:50:28.837Z,20.92
2022-08-03T14:51:01.957Z,20.86
2022-08-03T14:53:30.976Z,20.33
2022-08-03T14:56:00.126Z,20.64
2022-08-03T14:58:31.653Z,20.32
2022-08-03T15:01:01.335Z,20.45
2022-08-03T15:03:30.628Z,20.41
2022-08-03T15:06:00.368Z,20.32
2022-08-03T15:08:29.328Z,20.21
2022-08-03T15:10:57.895Z,20.12
2022-08-03T15:13:27.657Z,20.05
2022-08-03T15:15:58.455Z,19.97
2022-08-03T15:18:27.119Z,19.93
2022-08-03T15:20:55.875Z,19.81
2022-08-03T15:23:24.716Z,19.71
2022-08-03T15:26:31.813Z,19.56
2022-08-03T15:28:42.104Z,19.45
2022-08-03T15:31:10.775Z,19.32
2022-08-03T15:33:47.597Z,19.22
2022-08-03T15:36:16.408Z,19.11
2022-08-03T15:38:45.747Z,18.99
2022-08-03T15:41:15.757Z,18.87
2022-08-03T15:43:47.645Z,18.78
2022-08-03T15:46:29.069Z,18.77
2022-08-03T15:48:58.314Z,18.68
2022-08-03T15:51:27.067Z,18.53
2022-08-03T15:53:57.055Z,18.50
2022-08-03T15:56:27.114Z,18.40
2022-08-03T15:59:03.571Z,18.31
2022-08-03T16:01:42.098Z,18.20
2022-08-03T16:04:11.134Z,18.03
2022-08-03T16:06:39.940Z,18.05
2022-08-03T16:09:24.305Z,17.97
2022-08-03T16:11:58.616Z,17.92
2022-08-03T16:14:32.121Z,17.74
2022-08-03T16:17:02.086Z,17.83
2022-08-03T16:19:30.783Z,17.75
2022-08-03T16:21:59.902Z,17.72
2022-08-03T16:24:29.447Z,17.66
2022-08-03T16:27:01.087Z,17.67
2022-08-03T16:29:30.404Z,17.67
2022-08-03T16:31:58.895Z,17.55
2022-08-03T16:34:27.668Z,17.52
2022-08-03T16:36:56.913Z,17.52
2022-08-03T16:39:25.712Z,17.44
2022-08-03T16:42:01.308Z,17.38
2022-08-03T16:44:31.971Z,17.36
2022-08-03T16:47:00.921Z,17.22
2022-08-03T16:49:53.838Z,17.24
2022-08-03T16:52:18.787Z,17.11
2022-08-03T16:54:50.541Z,17.16
2022-08-03T16:57:56.446Z,16.99
2022-08-03T17:00:33.257Z,17.12
2022-08-03T17:03:12.429Z,17.05
2022-08-03T17:05:49.555Z,17.01
2022-08-03T17:08:26.225Z,17.01
2022-08-03T17:10:56.985Z,16.92
2022-08-03T17:13:38.751Z,16.86
2022-08-03T17:16:11.091Z,16.90
2022-08-03T17:18:47.689Z,16.88
2022-08-03T17:21:18.547Z,16.85
2022-08-03T17:23:56.382Z,16.66
2022-08-03T17:26:30.472Z,16.59
2022-08-03T17:29:11.153Z,16.64
2022-08-03T17:31:49.711Z,16.58
2022-08-03T17:34:20.456Z,16.61
2022-08-03T17:37:27.208Z,16.65
2022-08-03T17:39:58.055Z,16.66
2022-08-03T17:42:33.022Z,16.71
2022-08-03T17:45:06.480Z,16.45
2022-08-03T17:47:41.987Z,16.56
2022-08-03T17:50:24.806Z,16.69
2022-08-03T17:53:23.935Z,16.55
2022-08-03T17:56:45.330Z,16.56
2022-08-03T17:59:15.676Z,16.47
2022-08-03T18:02:36.023Z,16.39
2022-08-03T18:05:16.361Z,16.35
2022-08-03T18:07:59.382Z,16.25
2022-08-03T18:10:50.217Z,16.15
2022-08-03T18:13:30.347Z,16.15
2022-08-03T18:16:07.716Z,16.14
2022-08-03T18:18:43.252Z,16.00
2022-08-03T18:21:16.729Z,16.01
2022-08-03T18:23:50.145Z,15.94
2022-08-03T18:26:21.367Z,15.85
2022-08-03T18:28:57.075Z,15.78
2022-08-03T18:31:33.221Z,15.75
2022-08-03T18:37:09.736Z,15.60
2022-08-03T18:39:49.832Z,15.51
2022-08-03T18:42:24.060Z,15.49
2022-08-03T18:44:59.652Z,15.47
2022-08-03T18:47:58.096Z,15.52
2022-08-03T18:50:56.748Z,15.37
2022-08-03T18:54:03.075Z,15.48
2022-08-03T18:56:49.137Z,15.42
2022-08-03T18:59:30.075Z,15.39
2022-08-03T19:02:18.145Z,15.35
2022-08-03T19:04:49.077Z,15.28
2022-08-03T19:07:25.406Z,15.26
2022-08-03T19:09:59.547Z,15.31
2022-08-03T19:12:53.290Z,15.23
2022-08-03T19:15:36.712Z,15.20
2022-08-03T19:18:16.967Z,15.25
2022-08-03T19:20:47.069Z,15.23
2022-08-03T19:23:17.016Z,15.17
2022-08-03T19:25:48.407Z,14.99
2022-08-03T19:28:19.316Z,15.11
2022-08-03T19:31:02.809Z,15.08
2022-08-03T19:33:55.897Z,15.05
2022-08-03T19:36:29.355Z,14.94
2022-08-03T19:38:58.890Z,15.04
2022-08-03T19:41:42.336Z,14.92
2022-08-03T19:44:20.404Z,14.96
2022-08-03T19:46:55.079Z,14.88
2022-08-03T19:50:06.201Z,14.81
2022-08-03T19:52:24.167Z,14.58
2022-08-03T19:54:57.395Z,14.90
2022-08-03T19:57:30.326Z,14.88
2022-08-03T20:00:03.389Z,14.96
2022-08-03T20:02:35.070Z,14.94
2022-08-03T20:05:04.097Z,14.88
2022-08-03T20:07:33.557Z,14.94
2022-08-03T20:10:05.136Z,14.86
2022-08-03T20:12:39.343Z,14.86
2022-08-03T20:15:09.795Z,14.84
2022-08-03T20:17:55.075Z,14.90
2022-08-03T20:20:33.908Z,14.86
2022-08-03T20:23:08.192Z,14.79
2022-08-03T20:25:48.686Z,14.68
2022-08-03T20:28:30.255Z,14.79
2022-08-03T20:30:59.928Z,14.73
2022-08-03T20:33:46.461Z,14.57
2022-08-03T20:36:18.975Z,14.64
2022-08-03T20:38:51.972Z,14.56
2022-08-03T20:41:21.158Z,14.48
2022-08-03T20:43:51.062Z,14.60
2022-08-03T20:46:32.789Z,14.45
2022-08-03T20:49:07.976Z,14.46
2022-08-03T20:51:49.157Z,14.44
2022-08-03T20:54:31.290Z,14.49
2022-08-03T20:57:03.633Z,14.53
2022-08-03T21:02:30.037Z,14.55
2022-08-03T21:05:14.728Z,14.40
2022-08-03T21:08:06.487Z,14.44
2022-08-03T21:10:38.356Z,14.36
2022-08-03T21:12:58.522Z,15.65
2022-08-03T21:13:12.617Z,14.57
2022-08-03T21:16:02.484Z,14.29
2022-08-03T21:18:47.095Z,14.38
2022-08-03T21:21:19.233Z,14.25
2022-08-03T21:23:54.575Z,14.30
2022-08-03T21:26:26.600Z,14.18
2022-08-03T21:29:30.468Z,14.15
2022-08-03T21:32:00.282Z,14.02
2022-08-03T21:34:28.856Z,14.08
2022-08-03T21:36:57.866Z,14.05
2022-08-03T21:39:26.695Z,14.03
2022-08-03T21:41:57.875Z,13.99
2022-08-03T21:44:29.244Z,13.95
2022-08-03T21:46:59.956Z,13.91
2022-08-03T21:50:04.616Z,13.99
2022-08-03T21:52:23.096Z,13.88
2022-08-03T21:54:54.937Z,13.98
2022-08-03T21:57:26.296Z,14.00
2022-08-03T22:00:03.165Z,13.99
2022-08-03T22:02:53.128Z,13.94
2022-08-03T22:05:29.057Z,13.99
2022-08-03T22:08:14.032Z,13.93
2022-08-03T22:10:45.590Z,13.81
2022-08-03T22:13:20.604Z,13.82
2022-08-03T22:16:06.458Z,13.65
2022-08-03T22:18:40.069Z,13.77
2022-08-03T22:21:11.010Z,13.74
2022-08-03T22:23:49.449Z,13.77
2022-08-03T22:26:40.630Z,13.73
2022-08-03T22:29:09.425Z,13.70
2022-08-03T22:31:58.500Z,13.67
2022-08-03T22:34:29.452Z,13.65
2022-08-03T22:37:03.290Z,13.59
2022-08-03T22:39:32.077Z,13.58
2022-08-03T22:42:01.188Z,13.58
2022-08-03T22:44:30.510Z,13.50
2022-08-03T22:46:59.467Z,13.56
2022-08-03T22:49:29.985Z,13.53
2022-08-03T22:51:59.259Z,13.40
2022-08-03T22:54:28.776Z,13.31
2022-08-03T22:56:59.571Z,13.18
2022-08-03T22:59:40.011Z,13.56
2022-08-03T23:02:20.480Z,13.54
2022-08-03T23:04:56.652Z,13.57
2022-08-03T23:07:39.259Z,13.51
2022-08-03T23:10:11.955Z,13.57
2022-08-03T23:12:42.190Z,13.56
2022-08-03T23:15:14.074Z,13.56
2022-08-03T23:17:58.091Z,13.47
2022-08-03T23:20:28.973Z,13.39
2022-08-03T23:23:00.980Z,13.55
2022-08-03T23:25:30.243Z,13.60
2022-08-03T23:28:05.052Z,13.53
2022-08-03T23:30:38.282Z,13.54
2022-08-03T23:33:09.172Z,13.48
2022-08-03T23:36:22.619Z,13.63
2022-08-03T23:38:45.869Z,13.73
2022-08-03T23:41:16.060Z,13.99
2022-08-03T23:43:51.827Z,14.72
2022-08-03T23:46:23.614Z,15.52
2022-08-03T23:48:53.793Z,16.01
2022-08-03T23:51:50.905Z,16.82
2022-08-03T23:54:47.016Z,16.77
2022-08-03T23:57:38.877Z,16.38
